sensor_id;sensor_type;location;lat;lon;timestamp;pressure;altitude;pressure_sealevel;temperature;humidity
31403;BME280;18039;52.188;21.024;2023-04-30T00:00:09;76049.69;;;-141.45;88.79
31403;BME280;18039;52.188;21.024;2023-04-30T00:02:57;76053.72;;;-141.45;88.87
31403;BME280;18039;52.188;21.024;2023-04-30T00:05:24;76057.78;;;-141.45;90.01
31403;BME280;18039;52.188;21.024;2023-04-30T00:07:52;76067.91;;;-141.45;90.78
31403;BME280;18039;52.188;21.024;2023-04-30T00:10:19;76061.84;;;-141.45;90.80
31403;BME280;18039;52.188;21.024;2023-04-30T00:12:47;76063.88;;;-141.45;91.90
31403;BME280;18039;52.188;21.024;2023-04-30T00:15:14;76067.91;;;-141.45;91.91
31403;BME280;18039;52.188;21.024;2023-04-30T00:17:41;76069.94;;;-141.45;92.47
31403;BME280;18039;52.188;21.024;2023-04-30T00:20:09;76078.06;;;-141.45;93.06
31403;BME280;18039;52.188;21.024;2023-04-30T00:22:36;76090.22;;;-141.45;93.40
31403;BME280;18039;52.188;21.024;2023-04-30T00:25:04;76090.22;;;-141.45;93.76
31403;BME280;18039;52.188;21.024;2023-04-30T00:27:33;76090.22;;;-141.45;94.27
31403;BME280;18039;52.188;21.024;2023-04-30T00:30:00;76096.28;;;-141.45;94.58
31403;BME280;18039;52.188;21.024;2023-04-30T00:32:27;76094.25;;;-141.45;94.27
31403;BME280;18039;52.188;21.024;2023-04-30T00:34:55;76102.38;;;-141.45;95.20
31403;BME280;18039;52.188;21.024;2023-04-30T00:37:22;76098.31;;;-141.45;95.25
31403;BME280;18039;52.188;21.024;2023-04-30T00:39:49;76102.38;;;-141.45;95.39
31403;BME280;18039;52.188;21.024;2023-04-30T00:42:17;76102.38;;;-141.45;95.64
31403;BME280;18039;52.188;21.024;2023-04-30T00:44:44;76100.34;;;-141.45;95.98
31403;BME280;18039;52.188;21.024;2023-04-30T00:47:12;76110.47;;;-141.45;96.40
31403;BME280;18039;52.188;21.024;2023-04-30T00:49:39;76114.53;;;-141.45;96.72
31403;BME280;18039;52.188;21.024;2023-04-30T00:52:07;76118.59;;;-141.45;96.71
31403;BME280;18039;52.188;21.024;2023-04-30T00:54:34;76114.53;;;-141.45;96.81
31403;BME280;18039;52.188;21.024;2023-04-30T00:57:04;76106.41;;;-141.45;96.44
31403;BME280;18039;52.188;21.024;2023-04-30T00:59:32;76102.38;;;-141.45;95.12
31403;BME280;18039;52.188;21.024;2023-04-30T01:02:01;76094.25;;;-141.45;94.51
31403;BME280;18039;52.188;21.024;2023-04-30T01:04:30;76090.22;;;-141.45;94.48
31403;BME280;18039;52.188;21.024;2023-04-30T01:06:58;76092.25;;;-141.45;94.25
31403;BME280;18039;52.188;21.024;2023-04-30T01:09:28;76090.22;;;-141.45;94.62
31403;BME280;18039;52.188;21.024;2023-04-30T01:12:07;76090.22;;;-141.45;94.65
31403;BME280;18039;52.188;21.024;2023-04-30T01:17:27;76086.16;;;-141.45;95.00
31403;BME280;18039;52.188;21.024;2023-04-30T01:19:56;76092.25;;;-141.45;94.88
31403;BME280;18039;52.188;21.024;2023-04-30T01:25:06;76098.31;;;-141.45;96.02
31403;BME280;18039;52.188;21.024;2023-04-30T01:30:24;76102.38;;;-141.45;96.64
31403;BME280;18039;52.188;21.024;2023-04-30T01:32:52;76102.38;;;-141.45;96.74
31403;BME280;18039;52.188;21.024;2023-04-30T01:35:20;76100.34;;;-141.45;97.00
31403;BME280;18039;52.188;21.024;2023-04-30T01:38:36;76098.31;;;-141.45;96.92
31403;BME280;18039;52.188;21.024;2023-04-30T01:41:34;76102.38;;;-141.45;97.11
31403;BME280;18039;52.188;21.024;2023-04-30T01:47:02;76106.41;;;-141.45;97.56
31403;BME280;18039;52.188;21.024;2023-04-30T01:52:14;76106.41;;;-141.45;97.74
31403;BME280;18039;52.188;21.024;2023-04-30T01:54:54;76110.47;;;-141.45;97.83
31403;BME280;18039;52.188;21.024;2023-04-30T01:57:31;76114.53;;;-141.45;97.77
31403;BME280;18039;52.188;21.024;2023-04-30T01:59:59;76116.56;;;-141.45;98.22
31403;BME280;18039;52.188;21.024;2023-04-30T02:02:27;76118.59;;;-141.45;98.40
31403;BME280;18039;52.188;21.024;2023-04-30T02:04:54;76114.53;;;-141.45;98.34
31403;BME280;18039;52.188;21.024;2023-04-30T02:07:36;76104.41;;;-141.45;98.23
31403;BME280;18039;52.188;21.024;2023-04-30T02:10:07;76114.53;;;-141.45;98.15
31403;BME280;18039;52.188;21.024;2023-04-30T02:12:34;76118.59;;;-141.45;98.23
31403;BME280;18039;52.188;21.024;2023-04-30T02:15:03;76118.59;;;-141.45;98.50
31403;BME280;18039;52.188;21.024;2023-04-30T02:17:31;76124.66;;;-141.45;98.44
31403;BME280;18039;52.188;21.024;2023-04-30T02:19:59;76130.75;;;-141.45;98.65
31403;BME280;18039;52.188;21.024;2023-04-30T02:22:26;76122.63;;;-141.45;98.63
31403;BME280;18039;52.188;21.024;2023-04-30T02:24:54;76118.59;;;-141.45;98.65
31403;BME280;18039;52.188;21.024;2023-04-30T02:27:23;76138.84;;;-141.45;99.33
31403;BME280;18039;52.188;21.024;2023-04-30T02:29:52;76146.97;;;-141.45;99.61
31403;BME280;18039;52.188;21.024;2023-04-30T02:32:20;76142.91;;;-141.45;99.91
31403;BME280;18039;52.188;21.024;2023-04-30T02:34:48;76151.00;;;-141.45;100.00
31403;BME280;18039;52.188;21.024;2023-04-30T02:37:15;76146.97;;;-141.45;100.00
31403;BME280;18039;52.188;21.024;2023-04-30T02:39:43;76155.06;;;-141.45;100.00
31403;BME280;18039;52.188;21.024;2023-04-30T02:42:10;76155.06;;;-141.45;100.00
31403;BME280;18039;52.188;21.024;2023-04-30T02:44:38;76171.28;;;-141.45;100.00
31403;BME280;18039;52.188;21.024;2023-04-30T02:47:05;76155.06;;;-141.45;100.00
31403;BME280;18039;52.188;21.024;2023-04-30T02:49:33;76165.19;;;-141.45;100.00
31403;BME280;18039;52.188;21.024;2023-04-30T02:52:00;76159.13;;;-141.45;100.00
31403;BME280;18039;52.188;21.024;2023-04-30T02:54:27;76161.16;;;-141.45;99.98
31403;BME280;18039;52.188;21.024;2023-04-30T02:56:55;76163.19;;;-141.45;99.56
31403;BME280;18039;52.188;21.024;2023-04-30T02:59:22;76189.53;;;-141.45;100.00
31403;BME280;18039;52.188;21.024;2023-04-30T03:01:49;76195.59;;;-141.45;100.00
31403;BME280;18039;52.188;21.024;2023-04-30T03:04:17;76223.97;;;-141.45;100.00
31403;BME280;18039;52.188;21.024;2023-04-30T03:06:44;76238.16;;;-141.45;100.00
31403;BME280;18039;52.188;21.024;2023-04-30T03:09:12;76240.19;;;-141.45;100.00
31403;BME280;18039;52.188;21.024;2023-04-30T03:11:39;76248.31;;;-141.45;100.00
31403;BME280;18039;52.188;21.024;2023-04-30T03:14:07;76256.41;;;-141.45;100.00
31403;BME280;18039;52.188;21.024;2023-04-30T03:16:34;76266.53;;;-141.45;100.00
31403;BME280;18039;52.188;21.024;2023-04-30T03:19:02;76268.56;;;-141.45;100.00
31403;BME280;18039;52.188;21.024;2023-04-30T03:21:30;76278.72;;;-141.45;100.00
31403;BME280;18039;52.188;21.024;2023-04-30T03:23:57;76284.78;;;-141.45;100.00
31403;BME280;18039;52.188;21.024;2023-04-30T03:26:24;76284.78;;;-141.45;100.00
31403;BME280;18039;52.188;21.024;2023-04-30T03:28:51;76288.84;;;-141.45;100.00
31403;BME280;18039;52.188;21.024;2023-04-30T03:31:22;76292.91;;;-141.45;100.00
31403;BME280;18039;52.188;21.024;2023-04-30T03:33:49;76292.91;;;-141.45;98.98
31403;BME280;18039;52.188;21.024;2023-04-30T03:36:17;76288.84;;;-141.45;98.01
31403;BME280;18039;52.188;21.024;2023-04-30T03:38:44;76296.94;;;-141.45;97.54
31403;BME280;18039;52.188;21.024;2023-04-30T03:41:12;76305.06;;;-141.45;97.70
31403;BME280;18039;52.188;21.024;2023-04-30T03:43:39;76313.16;;;-141.45;96.88
31403;BME280;18039;52.188;21.024;2023-04-30T03:46:06;76309.13;;;-141.45;96.75
31403;BME280;18039;52.188;21.024;2023-04-30T03:48:34;76317.22;;;-141.45;96.58
31403;BME280;18039;52.188;21.024;2023-04-30T03:51:02;76317.22;;;-141.45;96.56
31403;BME280;18039;52.188;21.024;2023-04-30T03:53:30;76321.28;;;-141.45;96.45
31403;BME280;18039;52.188;21.024;2023-04-30T03:55:57;76321.28;;;-141.45;96.59
31403;BME280;18039;52.188;21.024;2023-04-30T03:58:25;76333.44;;;-141.45;96.14
31403;BME280;18039;52.188;21.024;2023-04-30T04:00:53;76345.59;;;-141.45;93.44
31403;BME280;18039;52.188;21.024;2023-04-30T04:03:21;76357.75;;;-141.45;91.23
31403;BME280;18039;52.188;21.024;2023-04-30T04:05:48;76382.09;;;-141.45;88.35
31403;BME280;18039;52.188;21.024;2023-04-30T04:08:17;76398.28;;;-141.45;82.23
31403;BME280;18039;52.188;21.024;2023-04-30T04:10:44;76414.50;;;-141.45;80.15
31403;BME280;18039;52.188;21.024;2023-04-30T04:13:12;76422.63;;;-141.45;78.99
31403;BME280;18039;52.188;21.024;2023-04-30T04:15:39;76426.69;;;-141.45;76.85
31403;BME280;18039;52.188;21.024;2023-04-30T04:18:06;76442.91;;;-141.45;76.20
31403;BME280;18039;52.188;21.024;2023-04-30T04:20:34;76453.03;;;-141.45;75.45
31403;BME280;18039;52.188;21.024;2023-04-30T04:23:02;76461.13;;;-141.45;75.93
31403;BME280;18039;52.188;21.024;2023-04-30T04:25:29;76471.28;;;-141.45;76.11
31403;BME280;18039;52.188;21.024;2023-04-30T04:27:56;76465.19;;;-141.45;75.12
31403;BME280;18039;52.188;21.024;2023-04-30T04:30:23;76475.31;;;-141.45;74.47
31403;BME280;18039;52.188;21.024;2023-04-30T04:32:51;76479.38;;;-141.45;74.17
31403;BME280;18039;52.188;21.024;2023-04-30T04:35:20;76487.50;;;-141.45;74.48
31403;BME280;18039;52.188;21.024;2023-04-30T04:37:47;76491.53;;;-141.45;74.78
31403;BME280;18039;52.188;21.024;2023-04-30T04:40:15;76503.69;;;-141.45;74.31
31403;BME280;18039;52.188;21.024;2023-04-30T04:42:42;76503.69;;;-141.45;73.67
31403;BME280;18039;52.188;21.024;2023-04-30T04:45:11;76528.03;;;-141.45;74.00
31403;BME280;18039;52.188;21.024;2023-04-30T04:47:39;76517.88;;;-141.45;74.50
31403;BME280;18039;52.188;21.024;2023-04-30T04:50:07;76515.88;;;-141.45;73.59
31403;BME280;18039;52.188;21.024;2023-04-30T04:52:34;76523.97;;;-141.45;74.15
31403;BME280;18039;52.188;21.024;2023-04-30T04:55:02;76517.88;;;-141.45;74.22
31403;BME280;18039;52.188;21.024;2023-04-30T04:57:29;76523.97;;;-141.45;73.46
31403;BME280;18039;52.188;21.024;2023-04-30T04:59:57;76521.94;;;-141.45;73.36
31403;BME280;18039;52.188;21.024;2023-04-30T05:02:25;76519.91;;;-141.45;73.75
31403;BME280;18039;52.188;21.024;2023-04-30T05:04:52;76523.97;;;-141.45;73.46
31403;BME280;18039;52.188;21.024;2023-04-30T05:07:20;76519.91;;;-141.45;73.82
31403;BME280;18039;52.188;21.024;2023-04-30T05:09:47;76511.81;;;-141.45;73.70
31403;BME280;18039;52.188;21.024;2023-04-30T05:12:15;76511.81;;;-141.45;74.00
31403;BME280;18039;52.188;21.024;2023-04-30T05:14:42;76503.69;;;-141.45;73.76
31403;BME280;18039;52.188;21.024;2023-04-30T05:17:11;76511.81;;;-141.45;73.61
31403;BME280;18039;52.188;21.024;2023-04-30T05:19:39;76511.81;;;-141.45;73.86
31403;BME280;18039;52.188;21.024;2023-04-30T05:22:06;76499.66;;;-141.45;73.75
31403;BME280;18039;52.188;21.024;2023-04-30T05:24:33;76509.78;;;-141.45;74.07
31403;BME280;18039;52.188;21.024;2023-04-30T05:27:01;76507.75;;;-141.45;74.61
31403;BME280;18039;52.188;21.024;2023-04-30T05:29:31;76507.75;;;-141.45;75.23
31403;BME280;18039;52.188;21.024;2023-04-30T05:31:59;76499.66;;;-141.45;75.29
31403;BME280;18039;52.188;21.024;2023-04-30T05:34:26;76501.69;;;-141.45;75.39
31403;BME280;18039;52.188;21.024;2023-04-30T05:36:53;76499.66;;;-141.45;74.75
31403;BME280;18039;52.188;21.024;2023-04-30T05:39:21;76507.75;;;-141.45;75.06
31403;BME280;18039;52.188;21.024;2023-04-30T05:41:49;76509.78;;;-141.45;75.75
31403;BME280;18039;52.188;21.024;2023-04-30T05:44:19;76507.75;;;-141.45;76.04
31403;BME280;18039;52.188;21.024;2023-04-30T05:46:46;76495.59;;;-141.45;76.49
31403;BME280;18039;52.188;21.024;2023-04-30T05:49:14;76497.63;;;-141.45;76.17
31403;BME280;18039;52.188;21.024;2023-04-30T05:51:41;76495.59;;;-141.45;76.20
31403;BME280;18039;52.188;21.024;2023-04-30T05:54:08;76493.56;;;-141.45;76.42
31403;BME280;18039;52.188;21.024;2023-04-30T05:56:36;76485.47;;;-141.45;76.56
31403;BME280;18039;52.188;21.024;2023-04-30T05:59:03;76483.44;;;-141.45;76.42
31403;BME280;18039;52.188;21.024;2023-04-30T06:01:30;76483.44;;;-141.45;76.10
31403;BME280;18039;52.188;21.024;2023-04-30T06:03:58;76479.38;;;-141.45;75.52
31403;BME280;18039;52.188;21.024;2023-04-30T06:06:27;76459.09;;;-141.45;75.94
31403;BME280;18039;52.188;21.024;2023-04-30T06:08:55;76446.94;;;-141.45;74.61
31403;BME280;18039;52.188;21.024;2023-04-30T06:11:22;76438.84;;;-141.45;74.42
31403;BME280;18039;52.188;21.024;2023-04-30T06:13:52;76440.88;;;-141.45;74.29
31403;BME280;18039;52.188;21.024;2023-04-30T06:16:19;76446.94;;;-141.45;74.20
31403;BME280;18039;52.188;21.024;2023-04-30T06:18:46;76453.03;;;-141.45;74.61
31403;BME280;18039;52.188;21.024;2023-04-30T06:21:13;76444.91;;;-141.45;75.09
31403;BME280;18039;52.188;21.024;2023-04-30T06:23:41;76426.69;;;-141.45;73.96
31403;BME280;18039;52.188;21.024;2023-04-30T06:26:08;76398.28;;;-141.45;72.60
31403;BME280;18039;52.188;21.024;2023-04-30T06:28:35;76386.13;;;-141.45;71.74
31403;BME280;18039;52.188;21.024;2023-04-30T06:31:03;76378.03;;;-141.45;72.63
31403;BME280;18039;52.188;21.024;2023-04-30T06:33:30;76359.78;;;-141.45;72.77
31403;BME280;18039;52.188;21.024;2023-04-30T06:35:58;76357.75;;;-141.45;71.22
31403;BME280;18039;52.188;21.024;2023-04-30T06:38:25;76359.78;;;-141.45;69.54
31403;BME280;18039;52.188;21.024;2023-04-30T06:40:52;76355.72;;;-141.45;69.47
31403;BME280;18039;52.188;21.024;2023-04-30T06:43:20;76337.50;;;-141.45;68.28
31403;BME280;18039;52.188;21.024;2023-04-30T06:45:47;76345.59;;;-141.45;68.42
31403;BME280;18039;52.188;21.024;2023-04-30T06:48:14;76345.59;;;-141.45;68.60
31403;BME280;18039;52.188;21.024;2023-04-30T06:50:42;76357.75;;;-141.45;68.61
31403;BME280;18039;52.188;21.024;2023-04-30T06:53:15;76390.19;;;-141.45;65.02
31403;BME280;18039;52.188;21.024;2023-04-30T06:55:44;76402.34;;;-141.45;64.63
31403;BME280;18039;52.188;21.024;2023-04-30T06:58:12;76406.41;;;-141.45;65.84
31403;BME280;18039;52.188;21.024;2023-04-30T07:00:39;76390.19;;;-141.45;72.02
31403;BME280;18039;52.188;21.024;2023-04-30T07:03:06;76410.47;;;-141.45;73.76
31403;BME280;18039;52.188;21.024;2023-04-30T07:05:34;76426.69;;;-141.45;72.63
31403;BME280;18039;52.188;21.024;2023-04-30T07:08:03;76434.78;;;-141.45;72.95
31403;BME280;18039;52.188;21.024;2023-04-30T07:10:31;76422.63;;;-141.45;72.83
31403;BME280;18039;52.188;21.024;2023-04-30T07:12:58;76402.34;;;-141.45;72.33
31403;BME280;18039;52.188;21.024;2023-04-30T07:15:25;76392.22;;;-141.45;66.63
31403;BME280;18039;52.188;21.024;2023-04-30T07:17:53;76394.25;;;-141.45;66.14
31403;BME280;18039;52.188;21.024;2023-04-30T07:20:21;76390.19;;;-141.45;65.84
31403;BME280;18039;52.188;21.024;2023-04-30T07:22:48;76382.09;;;-141.45;62.98
31403;BME280;18039;52.188;21.024;2023-04-30T07:25:16;76418.56;;;-141.45;62.00
31403;BME280;18039;52.188;21.024;2023-04-30T07:27:43;76430.72;;;-141.45;61.13
31403;BME280;18039;52.188;21.024;2023-04-30T07:30:11;76475.31;;;-141.45;62.09
31403;BME280;18039;52.188;21.024;2023-04-30T07:32:39;76475.31;;;-141.45;62.66
31403;BME280;18039;52.188;21.024;2023-04-30T07:35:07;76442.91;;;-141.45;63.25
31403;BME280;18039;52.188;21.024;2023-04-30T07:37:35;76410.47;;;-141.45;62.52
31403;BME280;18039;52.188;21.024;2023-04-30T07:40:05;76380.06;;;-141.45;62.15
31403;BME280;18039;52.188;21.024;2023-04-30T07:42:33;76386.13;;;-141.45;59.93
31403;BME280;18039;52.188;21.024;2023-04-30T07:45:00;76392.22;;;-141.45;58.94
31403;BME280;18039;52.188;21.024;2023-04-30T07:47:29;76422.63;;;-141.45;58.71
31403;BME280;18039;52.188;21.024;2023-04-30T07:49:58;76422.63;;;-141.45;58.53
31403;BME280;18039;52.188;21.024;2023-04-30T07:52:25;76418.56;;;-141.45;58.39
31403;BME280;18039;52.188;21.024;2023-04-30T07:54:52;76406.41;;;-141.45;58.24
31403;BME280;18039;52.188;21.024;2023-04-30T07:57:19;76394.25;;;-141.45;58.61
31403;BME280;18039;52.188;21.024;2023-04-30T07:59:47;76386.13;;;-141.45;57.47
31403;BME280;18039;52.188;21.024;2023-04-30T08:02:18;76378.03;;;-141.45;58.08
31403;BME280;18039;52.188;21.024;2023-04-30T08:04:45;76351.69;;;-141.45;58.41
31403;BME280;18039;52.188;21.024;2023-04-30T08:07:13;76345.59;;;-141.45;57.10
31403;BME280;18039;52.188;21.024;2023-04-30T08:09:44;76345.59;;;-141.45;57.40
31403;BME280;18039;52.188;21.024;2023-04-30T08:12:11;76345.59;;;-141.45;57.18
31403;BME280;18039;52.188;21.024;2023-04-30T08:14:38;76355.72;;;-141.45;55.40
31403;BME280;18039;52.188;21.024;2023-04-30T08:17:05;76353.72;;;-141.45;55.99
31403;BME280;18039;52.188;21.024;2023-04-30T08:19:33;76361.81;;;-141.45;54.90
31403;BME280;18039;52.188;21.024;2023-04-30T08:22:00;76353.72;;;-141.45;55.53
31403;BME280;18039;52.188;21.024;2023-04-30T08:24:27;76343.56;;;-141.45;54.91
31403;BME280;18039;52.188;21.024;2023-04-30T08:26:54;76333.44;;;-141.45;55.63
31403;BME280;18039;52.188;21.024;2023-04-30T08:29:22;76333.44;;;-141.45;54.84
31403;BME280;18039;52.188;21.024;2023-04-30T08:31:49;76337.50;;;-141.45;55.10
31403;BME280;18039;52.188;21.024;2023-04-30T08:34:16;76345.59;;;-141.45;53.82
31403;BME280;18039;52.188;21.024;2023-04-30T08:36:43;76345.59;;;-141.45;53.37
31403;BME280;18039;52.188;21.024;2023-04-30T08:39:11;76357.75;;;-141.45;53.11
31403;BME280;18039;52.188;21.024;2023-04-30T08:41:39;76353.72;;;-141.45;53.65
31403;BME280;18039;52.188;21.024;2023-04-30T08:44:09;76369.91;;;-141.45;53.23
31403;BME280;18039;52.188;21.024;2023-04-30T08:46:37;76386.13;;;-141.45;53.48
31403;BME280;18039;52.188;21.024;2023-04-30T08:49:06;76394.25;;;-141.45;51.84
31403;BME280;18039;52.188;21.024;2023-04-30T08:51:33;76386.13;;;-141.45;53.02
31403;BME280;18039;52.188;21.024;2023-04-30T08:54:02;76406.41;;;-141.45;52.17
31403;BME280;18039;52.188;21.024;2023-04-30T08:56:29;76418.56;;;-141.45;50.76
31403;BME280;18039;52.188;21.024;2023-04-30T08:58:57;76426.69;;;-141.45;49.86
31403;BME280;18039;52.188;21.024;2023-04-30T09:01:25;76424.66;;;-141.45;48.47
31403;BME280;18039;52.188;21.024;2023-04-30T09:03:54;76438.84;;;-141.45;47.40
31403;BME280;18039;52.188;21.024;2023-04-30T09:06:22;76420.59;;;-141.45;47.13
31403;BME280;18039;52.188;21.024;2023-04-30T09:08:50;76418.56;;;-141.45;47.52
31403;BME280;18039;52.188;21.024;2023-04-30T09:11:27;76418.56;;;-141.45;46.18
31403;BME280;18039;52.188;21.024;2023-04-30T09:13:57;76406.41;;;-141.45;45.59
31403;BME280;18039;52.188;21.024;2023-04-30T09:16:49;76398.28;;;-141.45;44.36
31403;BME280;18039;52.188;21.024;2023-04-30T09:19:28;76394.25;;;-141.45;42.30
31403;BME280;18039;52.188;21.024;2023-04-30T09:21:57;76384.09;;;-141.45;42.38
31403;BME280;18039;52.188;21.024;2023-04-30T09:24:24;76369.91;;;-141.45;42.82
31403;BME280;18039;52.188;21.024;2023-04-30T09:26:52;76361.81;;;-141.45;43.66
31403;BME280;18039;52.188;21.024;2023-04-30T09:29:20;76353.72;;;-141.45;43.80
31403;BME280;18039;52.188;21.024;2023-04-30T09:31:47;76361.81;;;-141.45;42.23
31403;BME280;18039;52.188;21.024;2023-04-30T09:34:15;76373.97;;;-141.45;42.47
31403;BME280;18039;52.188;21.024;2023-04-30T09:36:52;76363.84;;;-141.45;43.00
31403;BME280;18039;52.188;21.024;2023-04-30T09:39:23;76345.59;;;-141.45;43.08
31403;BME280;18039;52.188;21.024;2023-04-30T09:41:50;76337.50;;;-141.45;42.97
31403;BME280;18039;52.188;21.024;2023-04-30T09:44:34;76325.31;;;-141.45;42.18
31403;BME280;18039;52.188;21.024;2023-04-30T09:47:01;76337.50;;;-141.45;41.63
31403;BME280;18039;52.188;21.024;2023-04-30T09:49:29;76321.28;;;-141.45;42.54
31403;BME280;18039;52.188;21.024;2023-04-30T09:51:58;76321.28;;;-141.45;41.92
31403;BME280;18039;52.188;21.024;2023-04-30T09:54:30;76309.13;;;-141.45;41.17
31403;BME280;18039;52.188;21.024;2023-04-30T09:56:59;76335.47;;;-141.45;41.42
31403;BME280;18039;52.188;21.024;2023-04-30T09:59:30;76321.28;;;-141.45;41.20
31403;BME280;18039;52.188;21.024;2023-04-30T10:01:59;76325.31;;;-141.45;41.62
31403;BME280;18039;52.188;21.024;2023-04-30T10:04:37;76325.31;;;-141.45;39.56
31403;BME280;18039;52.188;21.024;2023-04-30T10:07:09;76333.44;;;-141.45;38.19
31403;BME280;18039;52.188;21.024;2023-04-30T10:09:57;76317.22;;;-141.45;39.89
31403;BME280;18039;52.188;21.024;2023-04-30T10:12:46;76333.44;;;-141.45;39.79
31403;BME280;18039;52.188;21.024;2023-04-30T10:15:25;76349.66;;;-141.45;40.27
31403;BME280;18039;52.188;21.024;2023-04-30T10:18:04;76341.53;;;-141.45;39.44
31403;BME280;18039;52.188;21.024;2023-04-30T10:20:34;76357.75;;;-141.45;41.14
31403;BME280;18039;52.188;21.024;2023-04-30T10:23:05;76361.81;;;-141.45;41.69
31403;BME280;18039;52.188;21.024;2023-04-30T10:25:34;76341.53;;;-141.45;42.53
31403;BME280;18039;52.188;21.024;2023-04-30T10:28:06;76345.59;;;-141.45;40.13
31403;BME280;18039;52.188;21.024;2023-04-30T10:30:34;76323.31;;;-141.45;38.33
31403;BME280;18039;52.188;21.024;2023-04-30T10:35:56;76311.13;;;-141.45;39.34
31403;BME280;18039;52.188;21.024;2023-04-30T10:38:27;76296.94;;;-141.45;40.59
31403;BME280;18039;52.188;21.024;2023-04-30T10:40:56;76284.78;;;-141.45;39.12
31403;BME280;18039;52.188;21.024;2023-04-30T10:43:25;76276.69;;;-141.45;40.26
31403;BME280;18039;52.188;21.024;2023-04-30T10:45:53;76252.34;;;-141.45;40.82
31403;BME280;18039;52.188;21.024;2023-04-30T10:48:21;76256.41;;;-141.45;39.25
31403;BME280;18039;52.188;21.024;2023-04-30T10:50:58;76252.34;;;-141.45;39.45
31403;BME280;18039;52.188;21.024;2023-04-30T10:53:29;76262.50;;;-141.45;39.03
31403;BME280;18039;52.188;21.024;2023-04-30T10:56:03;76272.63;;;-141.45;39.39
31403;BME280;18039;52.188;21.024;2023-04-30T10:58:37;76248.31;;;-141.45;39.82
31403;BME280;18039;52.188;21.024;2023-04-30T11:01:13;76226.00;;;-141.45;39.06
31403;BME280;18039;52.188;21.024;2023-04-30T11:09:15;76246.28;;;-141.45;40.28
31403;BME280;18039;52.188;21.024;2023-04-30T11:11:44;76232.09;;;-141.45;39.10
31403;BME280;18039;52.188;21.024;2023-04-30T11:14:19;76226.00;;;-141.45;39.31
31403;BME280;18039;52.188;21.024;2023-04-30T11:16:48;76223.97;;;-141.45;38.88
31403;BME280;18039;52.188;21.024;2023-04-30T11:19:17;76207.78;;;-141.45;38.29
31403;BME280;18039;52.188;21.024;2023-04-30T11:27:28;76207.78;;;-141.45;35.61
31403;BME280;18039;52.188;21.024;2023-04-30T11:29:57;76195.59;;;-141.45;36.11
31403;BME280;18039;52.188;21.024;2023-04-30T11:32:31;76215.88;;;-141.45;36.69
31403;BME280;18039;52.188;21.024;2023-04-30T11:35:01;76219.94;;;-141.45;36.87
31403;BME280;18039;52.188;21.024;2023-04-30T11:37:36;76215.88;;;-141.45;37.76
31403;BME280;18039;52.188;21.024;2023-04-30T11:40:08;76199.66;;;-141.45;37.57
31403;BME280;18039;52.188;21.024;2023-04-30T11:42:38;76187.50;;;-141.45;37.80
31403;BME280;18039;52.188;21.024;2023-04-30T11:45:10;76173.31;;;-141.45;38.05
31403;BME280;18039;52.188;21.024;2023-04-30T11:50:12;76171.28;;;-141.45;37.37
31403;BME280;18039;52.188;21.024;2023-04-30T11:52:41;76155.06;;;-141.45;37.25
31403;BME280;18039;52.188;21.024;2023-04-30T11:55:13;76159.13;;;-141.45;35.96
31403;BME280;18039;52.188;21.024;2023-04-30T11:57:43;76155.06;;;-141.45;35.38
31403;BME280;18039;52.188;21.024;2023-04-30T12:00:16;76175.34;;;-141.45;34.99
31403;BME280;18039;52.188;21.024;2023-04-30T12:02:48;76203.72;;;-141.45;35.91
31403;BME280;18039;52.188;21.024;2023-04-30T12:05:18;76215.88;;;-141.45;35.76
31403;BME280;18039;52.188;21.024;2023-04-30T12:07:54;76207.78;;;-141.45;36.40
31403;BME280;18039;52.188;21.024;2023-04-30T12:10:23;76181.41;;;-141.45;35.88
31403;BME280;18039;52.188;21.024;2023-04-30T12:12:52;76191.56;;;-141.45;35.29
31403;BME280;18039;52.188;21.024;2023-04-30T12:15:23;76207.78;;;-141.45;35.09
31403;BME280;18039;52.188;21.024;2023-04-30T12:17:55;76207.78;;;-141.45;35.22
31403;BME280;18039;52.188;21.024;2023-04-30T12:20:26;76203.72;;;-141.45;36.02
31403;BME280;18039;52.188;21.024;2023-04-30T12:22:55;76191.56;;;-141.45;37.28
31403;BME280;18039;52.188;21.024;2023-04-30T12:25:23;76199.66;;;-141.45;36.33
31403;BME280;18039;52.188;21.024;2023-04-30T12:27:52;76205.75;;;-141.45;37.15
31403;BME280;18039;52.188;21.024;2023-04-30T12:30:21;76191.56;;;-141.45;36.28
31403;BME280;18039;52.188;21.024;2023-04-30T12:32:50;76171.28;;;-141.45;36.01
31403;BME280;18039;52.188;21.024;2023-04-30T12:35:22;76146.97;;;-141.45;35.74
31403;BME280;18039;52.188;21.024;2023-04-30T12:37:53;76151.00;;;-141.45;36.01
31403;BME280;18039;52.188;21.024;2023-04-30T12:40:27;76157.09;;;-141.45;34.99
31403;BME280;18039;52.188;21.024;2023-04-30T12:43:07;76151.00;;;-141.45;35.65
31403;BME280;18039;52.188;21.024;2023-04-30T12:48:19;76161.16;;;-141.45;34.31
31403;BME280;18039;52.188;21.024;2023-04-30T12:50:52;76163.19;;;-141.45;33.44
31403;BME280;18039;52.188;21.024;2023-04-30T12:53:22;76167.22;;;-141.45;33.58
31403;BME280;18039;52.188;21.024;2023-04-30T12:56:15;76171.28;;;-141.45;33.99
31403;BME280;18039;52.188;21.024;2023-04-30T12:58:45;76163.19;;;-141.45;34.86
31403;BME280;18039;52.188;21.024;2023-04-30T13:01:16;76187.50;;;-141.45;34.96
31403;BME280;18039;52.188;21.024;2023-04-30T13:03:44;76185.47;;;-141.45;35.63
31403;BME280;18039;52.188;21.024;2023-04-30T13:06:11;76183.44;;;-141.45;35.42
31403;BME280;18039;52.188;21.024;2023-04-30T13:08:39;76171.28;;;-141.45;34.94
31403;BME280;18039;52.188;21.024;2023-04-30T13:11:24;76159.13;;;-141.45;35.49
31403;BME280;18039;52.188;21.024;2023-04-30T13:13:53;76151.00;;;-141.45;35.46